Golspie, United Kingdom
Current Conditions -  °F | °C
As of 9:50 PM on Monday 20 Oct 2014 (Local Time) from EGQK Reporting Station
Broken Clouds Broken Clouds  
Wind Chill: 57°   Ceiling: 4700
Heat Index: 57°   Visibility: 6mi
Dew Point: 46°   Wind: 14mph
Humidity: 67%   Direction: 190°S
Pressure: 29.35"   Gusts: NA
Location:  57.97°N, 3.98°W
Report Text: EGQK 202050Z AUTO 19012KT 9999 BKN047/// SCT180/// 14/08 Q0994
Loading
Personal Weather Stations






























Interactive Weather Map
Tropical Storm Tracking
New forecast layout! Learn more

10-Day Weather Forecast

Advertisements
Track Severe Weather on mobile